Time;durP1;ratioP1;P1;durP2;ratioP2;P2;SDS_P1;SDS_P2;PMS_P1;PMS_P2;Temp;Humidity;BMP_temperature;BMP_pressure;BME280_temperature;BME280_humidity;BME280_pressure;Samples;Min_cycle;Max_cycle;Signal;HPM_P1;HPM_P2
2023/05/28 00:02:02;;;;;;;16.00;7.85;;;486.90;2380.80;;;;;;5081956;28;20466;-72
2023/05/28 00:04:28;;;;;;;25.13;8.93;;;486.90;2380.80;;;;;;5077216;28;20024;-72
2023/05/28 00:06:55;;;;;;;21.75;8.40;;;486.80;2380.80;;;;;;5080404;28;20813;-72
2023/05/28 00:09:21;;;;;;;15.07;8.05;;;486.90;2380.80;;;;;;5080945;28;20025;-72
2023/05/28 00:11:47;;;;;;;21.15;7.55;;;486.80;2380.80;;;;;;5075157;28;20024;-71
2023/05/28 00:14:13;;;;;;;19.98;8.02;;;486.70;2380.80;;;;;;5077772;28;20024;-72
2023/05/28 00:16:40;;;;;;;16.73;8.27;;;486.80;2380.80;;;;;;5074936;28;20386;-72
2023/05/28 00:19:07;;;;;;;17.75;8.07;;;486.70;2380.80;;;;;;5074946;28;20017;-72
2023/05/28 00:21:34;;;;;;;15.70;7.75;;;486.70;2380.80;;;;;;5080631;28;20020;-72
2023/05/28 00:23:59;;;;;;;15.30;7.20;;;486.70;2380.80;;;;;;5077763;28;20393;-72
2023/05/28 00:26:26;;;;;;;14.90;6.80;;;486.50;2380.80;;;;;;5074889;28;20028;-72
2023/05/28 00:28:52;;;;;;;23.15;8.20;;;486.50;2380.80;;;;;;5080502;28;20028;-72
2023/05/28 00:31:18;;;;;;;25.05;8.02;;;486.50;2380.80;;;;;;5074838;28;20024;-71
2023/05/28 00:33:44;;;;;;;19.30;6.75;;;486.50;2380.80;;;;;;5076082;28;20370;-72
2023/05/28 00:36:11;;;;;;;20.95;7.10;;;486.40;2380.80;;;;;;5094956;28;20484;-72
2023/05/28 00:38:37;;;;;;;20.25;6.85;;;486.40;2380.80;;;;;;5094869;28;20083;-74
2023/05/28 00:41:03;;;;;;;13.50;7.43;;;486.40;2380.80;;;;;;5095275;28;20020;-72
2023/05/28 00:43:29;;;;;;;15.63;7.05;;;461.70;2380.80;;;;;;5094607;28;20498;-71
2023/05/28 00:46:00;;;;;;;19.02;7.47;;;461.70;2380.80;;;;;;5094458;28;20111;-72
2023/05/28 00:48:27;;;;;;;14.98;7.13;;;461.70;2380.80;;;;;;5092146;28;20070;-72
2023/05/28 00:50:53;;;;;;;17.05;7.78;;;461.60;2380.80;;;;;;5093127;28;20089;-72
2023/05/28 00:53:19;;;;;;;21.40;6.93;;;461.60;2380.80;;;;;;5094316;28;20036;-71
2023/05/28 00:55:45;;;;;;;14.30;6.63;;;461.50;2380.80;;;;;;5094418;28;20028;-72
2023/05/28 00:58:11;;;;;;;23.38;7.43;;;461.60;2380.80;;;;;;5094584;28;20020;-72
2023/05/28 01:00:38;;;;;;;23.40;8.50;;;461.60;2380.80;;;;;;5094442;28;20020;-72
2023/05/28 01:03:05;;;;;;;16.52;7.43;;;461.60;2380.80;;;;;;5094113;28;20023;-72
2023/05/28 01:05:34;;;;;;;14.57;7.05;;;461.60;2380.80;;;;;;5094414;28;20481;-72
2023/05/28 01:08:03;;;;;;;17.63;7.22;;;461.60;2380.80;;;;;;5094165;28;20028;-72
2023/05/28 01:10:31;;;;;;;12.63;6.10;;;461.60;2380.80;;;;;;5091725;28;20016;-72
2023/05/28 01:12:58;;;;;;;15.85;6.53;;;461.50;2380.80;;;;;;5075934;28;20055;-72
2023/05/28 01:15:25;;;;;;;23.05;6.47;;;461.50;2380.80;;;;;;5093661;28;20099;-72
2023/05/28 01:18:01;;;;;;;17.15;6.88;;;461.50;2380.80;;;;;;5094255;28;20027;-72
2023/05/28 01:20:28;;;;;;;14.43;7.35;;;461.50;2380.80;;;;;;5093827;28;20135;-72
2023/05/28 01:22:58;;;;;;;24.05;7.45;;;461.40;2380.80;;;;;;5093973;28;20024;-72
2023/05/28 01:25:24;;;;;;;17.27;7.05;;;461.50;2380.80;;;;;;5093816;28;20081;-73
2023/05/28 01:27:50;;;;;;;21.33;7.45;;;461.50;2380.80;;;;;;5075527;28;20390;-71
2023/05/28 01:30:16;;;;;;;28.23;8.00;;;461.50;2380.80;;;;;;5093531;28;20012;-71
2023/05/28 01:32:42;;;;;;;18.63;7.20;;;461.50;2380.80;;;;;;5093952;28;20032;-72
2023/05/28 01:35:09;;;;;;;20.73;7.07;;;461.50;2380.80;;;;;;5093423;28;20449;-72
2023/05/28 01:37:39;;;;;;;19.77;7.47;;;461.50;2380.80;;;;;;5093962;28;20024;-78
2023/05/28 01:40:08;;;;;;;21.00;6.82;;;461.50;2380.80;;;;;;5093567;28;20018;-72
2023/05/28 01:42:34;;;;;;;25.00;7.75;;;461.50;2380.80;;;;;;5093644;28;20016;-72
2023/05/28 01:45:03;;;;;;;20.75;6.68;;;461.40;2380.80;;;;;;5093401;28;20067;-71
2023/05/28 01:47:29;;;;;;;16.80;6.97;;;461.50;2380.80;;;;;;5093208;28;20051;-72
2023/05/28 01:49:55;;;;;;;20.52;6.88;;;461.40;2380.80;;;;;;5093282;28;20020;-71
2023/05/28 01:52:21;;;;;;;20.60;7.72;;;461.40;2380.80;;;;;;5093353;28;20024;-71
2023/05/28 01:54:47;;;;;;;16.95;6.45;;;461.40;2380.80;;;;;;5093490;28;20028;-71
2023/05/28 01:57:12;;;;;;;19.95;7.65;;;461.40;2380.80;;;;;;5093081;28;20040;-72
2023/05/28 01:59:38;;;;;;;21.08;6.47;;;461.50;2380.80;;;;;;5093225;28;20024;-72
2023/05/28 02:02:05;;;;;;;18.30;6.20;;;461.50;2380.80;;;;;;5092818;28;20024;-71
2023/05/28 02:04:31;;;;;;;17.70;6.93;;;461.40;2380.80;;;;;;5090427;28;20103;-71
2023/05/28 02:06:58;;;;;;;24.20;8.55;;;461.40;2380.80;;;;;;5093390;28;20142;-72
2023/05/28 02:09:23;;;;;;;16.60;6.55;;;461.30;2380.80;;;;;;5093094;28;20023;-72
2023/05/28 02:11:49;;;;;;;32.65;7.47;;;461.10;2380.80;;;;;;5092859;28;20012;-71
2023/05/28 02:14:15;;;;;;;20.10;6.38;;;461.10;2380.80;;;;;;5092586;28;20103;-78
2023/05/28 02:16:48;;;;;;;15.55;6.78;;;461.10;2380.80;;;;;;5092972;28;20016;-72
2023/05/28 02:19:15;;;;;;;23.48;7.65;;;461.10;2380.80;;;;;;5090240;28;20020;-72
2023/05/28 02:21:40;;;;;;;20.75;7.88;;;461.10;2380.80;;;;;;5093121;28;20065;-72
2023/05/28 02:24:06;;;;;;;22.08;7.72;;;461.10;2380.80;;;;;;5092871;28;20040;-71
2023/05/28 02:26:32;;;;;;;19.00;7.30;;;461.10;2380.80;;;;;;5092917;28;20030;-72
2023/05/28 02:28:58;;;;;;;22.38;7.20;;;461.20;2380.80;;;;;;5092989;28;20362;-71
2023/05/28 02:31:23;;;;;;;23.90;7.30;;;461.20;2380.80;;;;;;5092571;28;20032;-71
2023/05/28 02:33:49;;;;;;;19.60;6.85;;;461.10;2380.80;;;;;;5092313;28;20086;-71
2023/05/28 02:36:15;;;;;;;23.67;7.32;;;461.10;2380.80;;;;;;5092909;28;20099;-73
2023/05/28 02:38:42;;;;;;;17.70;6.88;;;461.00;2380.80;;;;;;5092771;28;20359;-72
2023/05/28 02:41:08;;;;;;;23.25;7.13;;;461.00;2380.80;;;;;;5092574;28;20103;-72
2023/05/28 02:43:34;;;;;;;20.95;7.07;;;461.10;2380.80;;;;;;5092304;28;20024;-71
2023/05/28 02:46:00;;;;;;;19.23;6.47;;;461.10;2380.80;;;;;;5092570;28;20086;-72
2023/05/28 02:48:26;;;;;;;20.95;7.78;;;461.10;2380.80;;;;;;5092347;28;20024;-75
2023/05/28 02:50:52;;;;;;;20.98;6.30;;;461.10;2380.80;;;;;;5092212;28;20027;-71
2023/05/28 02:53:22;;;;;;;18.88;6.63;;;461.00;2380.80;;;;;;5092557;28;20028;-72
2023/05/28 02:55:48;;;;;;;19.80;5.93;;;461.10;2380.80;;;;;;5092192;28;20020;-71
2023/05/28 02:58:14;;;;;;;21.52;7.43;;;461.10;2380.80;;;;;;5089850;28;20048;-71
2023/05/28 03:00:40;;;;;;;21.40;5.70;;;461.00;2380.80;;;;;;5092252;28;20040;-71
2023/05/28 03:03:06;;;;;;;13.23;6.18;;;461.00;2380.80;;;;;;5091790;28;20032;-73
2023/05/28 03:05:32;;;;;;;9.65;5.57;;;461.00;2380.80;;;;;;5091700;28;20370;-71
2023/05/28 03:08:01;;;;;;;25.17;6.70;;;461.10;2380.80;;;;;;5091692;28;20028;-72
2023/05/28 03:10:27;;;;;;;19.30;6.00;;;461.00;2380.80;;;;;;5091597;28;20470;-72
2023/05/28 03:12:53;;;;;;;21.00;7.22;;;461.00;2380.80;;;;;;5091428;28;20036;-72
2023/05/28 03:15:18;;;;;;;13.90;6.28;;;461.00;2380.80;;;;;;5076540;28;20047;-71
2023/05/28 03:17:44;;;;;;;13.27;5.47;;;460.90;2380.80;;;;;;5096112;28;20127;-78
2023/05/28 03:20:11;;;;;;;15.88;6.28;;;460.90;2380.80;;;;;;5095735;28;20379;-72
2023/05/28 03:22:38;;;;;;;13.45;5.93;;;460.90;2380.80;;;;;;5093405;28;20038;-78
2023/05/28 03:25:05;;;;;;;14.48;5.60;;;460.90;2380.80;;;;;;5095900;28;20023;-76
2023/05/28 03:27:31;;;;;;;21.10;6.28;;;460.90;2380.80;;;;;;5095600;28;20024;-71
2023/05/28 03:29:57;;;;;;;15.20;5.50;;;460.90;2380.80;;;;;;5095366;28;20020;-71
2023/05/28 03:32:23;;;;;;;17.27;6.57;;;460.90;2380.80;;;;;;5095583;28;20031;-71
2023/05/28 03:34:49;;;;;;;19.80;6.28;;;460.90;2380.80;;;;;;5095133;28;20055;-72
2023/05/28 03:37:15;;;;;;;19.98;6.05;;;460.80;2380.80;;;;;;5095310;28;20461;-76
2023/05/28 03:39:41;;;;;;;16.85;6.25;;;460.80;2380.80;;;;;;5095092;28;20085;-72
2023/05/28 03:42:07;;;;;;;14.30;6.18;;;460.80;2380.80;;;;;;5095677;28;20054;-72
2023/05/28 03:44:33;;;;;;;19.52;6.57;;;460.80;2380.80;;;;;;5094966;28;20107;-72
2023/05/28 03:46:59;;;;;;;14.63;6.07;;;436.10;2355.20;;;;;;5095803;28;20024;-72
2023/05/28 03:49:25;;;;;;;16.73;6.15;;;460.80;2380.80;;;;;;5095575;28;20016;-72
2023/05/28 03:51:51;;;;;;;13.85;6.72;;;460.80;2380.80;;;;;;5095565;28;20032;-72
2023/05/28 03:54:16;;;;;;;16.17;6.25;;;460.80;2380.80;;;;;;5094802;28;20031;-72
2023/05/28 03:56:43;;;;;;;16.67;6.07;;;460.80;2380.80;;;;;;5095170;28;20016;-72
2023/05/28 03:59:08;;;;;;;14.52;6.03;;;460.80;2380.80;;;;;;5076509;28;20501;-72
2023/05/28 04:01:35;;;;;;;20.67;5.93;;;460.80;2380.80;;;;;;5094862;28;20107;-72
2023/05/28 04:04:02;;;;;;;12.20;5.57;;;460.80;2380.80;;;;;;5094856;28;20024;-72
2023/05/28 04:06:28;;;;;;;16.85;5.35;;;460.90;2380.80;;;;;;5095169;28;20012;-72
2023/05/28 04:08:55;;;;;;;12.93;5.65;;;460.80;2380.80;;;;;;5094801;28;20078;-74
2023/05/28 04:11:24;;;;;;;15.93;5.75;;;436.10;2355.20;;;;;;5094874;28;20022;-71
2023/05/28 04:13:50;;;;;;;12.07;6.30;;;436.10;2355.20;;;;;;5076336;28;20039;-74
2023/05/28 04:16:16;;;;;;;19.38;6.18;;;460.80;2380.80;;;;;;5094068;28;20047;-72
2023/05/28 04:18:42;;;;;;;13.20;5.63;;;460.80;2380.80;;;;;;5094562;28;20469;-72
2023/05/28 04:21:08;;;;;;;21.50;6.35;;;436.10;2355.20;;;;;;5094636;28;20087;-72
2023/05/28 04:23:33;;;;;;;15.82;6.13;;;436.10;2355.20;;;;;;5094913;28;20111;-72
2023/05/28 04:25:59;;;;;;;13.57;7.43;;;460.80;2380.80;;;;;;5094156;28;20646;-72
2023/05/28 04:28:27;;;;;;;15.38;6.18;;;460.80;2380.80;;;;;;5094428;28;20019;-72
2023/05/28 04:30:54;;;;;;;18.48;6.78;;;460.80;2380.80;;;;;;5094238;28;20076;-71
2023/05/28 04:33:20;;;;;;;18.63;5.90;;;460.80;2380.80;;;;;;5094007;28;20431;-72
2023/05/28 04:35:47;;;;;;;20.50;6.18;;;460.80;2380.80;;;;;;5094402;28;20024;-72
2023/05/28 04:38:12;;;;;;;23.77;6.88;;;460.90;2380.80;;;;;;5094628;28;20020;-72
2023/05/28 04:40:39;;;;;;;17.83;6.57;;;460.80;2380.80;;;;;;5094028;28;20405;-72
2023/05/28 04:43:06;;;;;;;16.35;6.57;;;460.90;2380.80;;;;;;5094159;28;20016;-72
2023/05/28 04:45:32;;;;;;;25.80;7.03;;;460.90;2380.80;;;;;;5093967;28;20047;-72
2023/05/28 04:47:58;;;;;;;23.52;6.63;;;461.00;2380.80;;;;;;5094041;28;20125;-71
2023/05/28 04:50:24;;;;;;;21.83;6.82;;;461.10;2380.80;;;;;;5093800;28;20016;-73
2023/05/28 04:52:50;;;;;;;15.20;6.53;;;461.10;2380.80;;;;;;5094467;28;20033;-71
2023/05/28 04:55:16;;;;;;;16.13;6.45;;;461.20;2380.80;;;;;;5094405;28;20019;-71
2023/05/28 04:57:42;;;;;;;15.27;6.82;;;461.20;2380.80;;;;;;5094188;28;20017;-71
2023/05/28 05:00:14;;;;;;;19.52;6.88;;;461.20;2380.80;;;;;;5094284;28;20026;-71
2023/05/28 05:02:41;;;;;;;17.50;7.25;;;461.30;2380.80;;;;;;5093708;28;20365;-79
2023/05/28 05:05:07;;;;;;;14.13;6.65;;;461.30;2380.80;;;;;;5093763;28;20501;-71
2023/05/28 05:07:37;;;;;;;19.75;6.72;;;461.40;2380.80;;;;;;5093427;28;20462;-71
2023/05/28 05:10:08;;;;;;;17.77;5.95;;;461.50;2380.80;;;;;;5093425;28;20048;-72
2023/05/28 05:12:34;;;;;;;21.00;6.53;;;461.40;2380.80;;;;;;5075454;28;20039;-78
2023/05/28 05:15:00;;;;;;;13.73;6.93;;;461.50;2380.80;;;;;;5093486;28;20028;-72
2023/05/28 05:17:26;;;;;;;15.00;7.40;;;461.50;2380.80;;;;;;5093812;28;20026;-73
2023/05/28 05:19:52;;;;;;;21.13;8.38;;;461.70;2380.80;;;;;;5094011;28;20020;-80
2023/05/28 05:22:18;;;;;;;24.17;8.00;;;461.70;2380.80;;;;;;5093792;28;20081;-73
2023/05/28 05:24:46;;;;;;;30.38;8.32;;;461.70;2380.80;;;;;;5093985;28;20031;-73
2023/05/28 05:27:12;;;;;;;13.52;7.53;;;461.70;2380.80;;;;;;5094663;28;20024;-73
2023/05/28 05:29:37;;;;;;;20.23;7.30;;;486.50;2380.80;;;;;;5095795;28;20016;-72
2023/05/28 05:32:03;;;;;;;16.13;8.13;;;486.60;2380.80;;;;;;5102025;28;20032;-74
2023/05/28 05:34:29;;;;;;;12.23;6.68;;;486.60;2380.80;;;;;;5094968;28;20052;-72
2023/05/28 05:36:55;;;;;;;16.33;8.30;;;486.60;2380.80;;;;;;5077910;28;20492;-73
2023/05/28 05:39:21;;;;;;;22.42;8.35;;;486.70;2380.80;;;;;;5097823;28;20051;-73
2023/05/28 05:41:46;;;;;;;17.92;7.78;;;486.70;2380.80;;;;;;5097665;28;20020;-72
2023/05/28 05:44:12;;;;;;;18.63;7.53;;;486.80;2380.80;;;;;;5102683;28;20114;-72
2023/05/28 05:46:38;;;;;;;18.55;7.47;;;486.80;2380.80;;;;;;5098040;28;20032;-73
2023/05/28 05:49:03;;;;;;;22.05;7.22;;;486.80;2380.80;;;;;;5094387;28;20433;-73
2023/05/28 05:51:32;;;;;;;19.42;8.65;;;486.90;2380.80;;;;;;5095228;28;20039;-72
2023/05/28 05:53:57;;;;;;;20.52;7.70;;;486.90;2380.80;;;;;;5102918;28;20043;-73
2023/05/28 05:56:25;;;;;;;24.98;9.18;;;486.90;2380.80;;;;;;5107049;28;20016;-72
2023/05/28 05:58:51;;;;;;;22.83;7.97;;;487.10;2380.80;;;;;;5109057;28;20397;-71
2023/05/28 06:01:17;;;;;;;14.10;8.10;;;487.10;2380.80;;;;;;5095551;28;20020;-72
2023/05/28 06:03:43;;;;;;;15.73;7.97;;;487.10;2380.80;;;;;;5106135;28;20024;-71
2023/05/28 06:06:09;;;;;;;15.77;8.45;;;487.30;2380.80;;;;;;5096800;28;20390;-73
2023/05/28 06:08:35;;;;;;;22.00;8.32;;;487.30;2380.80;;;;;;5097900;28;20020;-72
2023/05/28 06:11:02;;;;;;;21.23;9.00;;;512.10;2380.80;;;;;;5101260;28;20094;-72
2023/05/28 06:13:27;;;;;;;28.00;9.18;;;512.00;2380.80;;;;;;5098282;28;20036;-71
2023/05/28 06:15:54;;;;;;;21.25;9.18;;;512.10;2380.80;;;;;;5102915;28;20028;-71
2023/05/28 06:18:21;;;;;;;22.25;8.35;;;512.10;2380.80;;;;;;5107180;28;20470;-74
2023/05/28 06:20:49;;;;;;;17.88;7.97;;;512.20;2380.80;;;;;;5098702;28;20055;-72
2023/05/28 06:23:16;;;;;;;20.27;8.10;;;512.30;2380.80;;;;;;5098921;28;20024;-72
2023/05/28 06:25:43;;;;;;;15.65;8.20;;;512.10;2380.80;;;;;;5102475;28;20016;-71
2023/05/28 06:28:10;;;;;;;17.25;8.20;;;;;;;;;;5098185;28;20020;-71
2023/05/28 06:30:35;;;;;;;17.20;7.65;;;512.30;2380.80;;;;;;5098778;28;20024;-73
2023/05/28 06:33:01;;;;;;;32.92;8.70;;;512.40;2380.80;;;;;;5102318;28;20055;-73
2023/05/28 06:35:27;;;;;;;15.02;8.20;;;512.50;2380.80;;;;;;5095876;28;20068;-72
2023/05/28 06:37:53;;;;;;;22.40;8.88;;;512.60;2380.80;;;;;;5095319;28;20485;-71
2023/05/28 06:40:19;;;;;;;14.73;7.45;;;512.70;2380.80;;;;;;5094295;28;20496;-74
2023/05/28 06:42:44;;;;;;;17.20;8.27;;;512.80;2380.80;;;;;;5097959;28;20021;-71
2023/05/28 06:45:11;;;;;;;22.10;8.65;;;512.80;2380.80;;;;;;5098304;28;20020;-72
2023/05/28 06:47:37;;;;;;;17.85;8.52;;;512.90;2380.80;;;;;;5076379;28;20440;-73
2023/05/28 06:50:03;;;;;;;16.00;8.15;;;512.90;2380.80;;;;;;5098534;28;20032;-72
2023/05/28 06:52:29;;;;;;;22.98;9.23;;;537.70;2406.40;;;;;;5098540;28;20031;-72
2023/05/28 06:54:55;;;;;;;19.08;8.93;;;537.70;2406.40;;;;;;5099047;28;20103;-73
2023/05/28 06:57:21;;;;;;;15.77;8.70;;;537.80;2406.40;;;;;;5105612;28;20059;-73
2023/05/28 06:59:47;;;;;;;17.05;8.82;;;537.90;2406.40;;;;;;5094612;28;20095;-74
2023/05/28 07:02:12;;;;;;;19.23;9.15;;;537.90;2406.40;;;;;;5104440;28;20068;-73
2023/05/28 07:04:38;;;;;;;14.43;8.88;;;538.10;2406.40;;;;;;5096701;28;20200;-73
2023/05/28 07:07:05;;;;;;;21.95;9.05;;;538.20;2406.40;;;;;;5100650;28;20038;-73
2023/05/28 07:09:30;;;;;;;17.85;8.93;;;538.30;2406.40;;;;;;5096904;28;20107;-73
2023/05/28 07:11:56;;;;;;;17.98;8.82;;;538.50;2406.40;;;;;;5100278;28;20534;-73
2023/05/28 07:14:22;;;;;;;15.30;8.88;;;538.50;2406.40;;;;;;5096723;28;20393;-74
2023/05/28 07:16:48;;;;;;;19.30;10.50;;;538.40;2406.40;;;;;;5096044;28;20478;-71
2023/05/28 07:19:14;;;;;;;14.88;9.70;;;538.40;2406.40;;;;;;5096536;28;20031;-71
2023/05/28 07:21:40;;;;;;;18.60;10.15;;;538.30;2406.40;;;;;;5097918;28;20078;-71
2023/05/28 07:24:06;;;;;;;18.23;11.20;;;538.50;2406.40;;;;;;5096644;28;20485;-71
2023/05/28 07:26:32;;;;;;;15.65;9.75;;;538.30;2406.40;;;;;;5097393;28;20394;-71
2023/05/28 07:28:59;;;;;;;19.73;10.10;;;538.50;2406.40;;;;;;5080338;28;20351;-71
2023/05/28 07:31:25;;;;;;;18.65;10.23;;;563.20;2432.00;;;;;;5101417;28;20421;-71
2023/05/28 07:33:51;;;;;;;15.85;9.25;;;563.30;2432.00;;;;;;5102803;28;20058;-71
2023/05/28 07:36:17;;;;;;;20.45;9.80;;;563.30;2432.00;;;;;;5101986;28;20489;-70
2023/05/28 07:38:43;;;;;;;16.60;9.50;;;563.20;2432.00;;;;;;5101336;28;20024;-70
2023/05/28 07:41:08;;;;;;;15.90;10.20;;;563.20;2432.00;;;;;;5098041;28;20375;-71
2023/05/28 07:43:34;;;;;;;14.13;8.32;;;538.50;2406.40;;;;;;5098946;28;20028;-71
2023/05/28 07:46:00;;;;;;;14.23;8.65;;;563.20;2432.00;;;;;;5098419;28;20032;-71
2023/05/28 07:48:26;;;;;;;15.93;9.35;;;538.50;2406.40;;;;;;5096159;28;20028;-70
2023/05/28 07:50:52;;;;;;;18.60;9.05;;;563.20;2432.00;;;;;;5093364;28;20079;-71
2023/05/28 07:53:18;;;;;;;18.45;9.25;;;538.50;2406.40;;;;;;5097132;28;20040;-70
2023/05/28 07:55:44;;;;;;;19.95;9.20;;;538.50;2406.40;;;;;;5104860;28;20447;-70
2023/05/28 07:58:12;;;;;;;15.30;9.07;;;563.20;2432.00;;;;;;5093925;28;20032;-71
2023/05/28 08:00:39;;;;;;;19.73;9.05;;;563.20;2432.00;;;;;;5102085;28;20020;-71
2023/05/28 08:03:05;;;;;;;15.80;9.07;;;563.40;2432.00;;;;;;5099922;28;20031;-70
2023/05/28 08:05:31;;;;;;;17.65;9.07;;;563.30;2432.00;;;;;;5100616;28;20477;-71
2023/05/28 08:07:57;;;;;;;25.13;9.88;;;563.30;2432.00;;;;;;5100507;28;20031;-70
2023/05/28 08:10:23;;;;;;;19.63;9.45;;;563.30;2432.00;;;;;;5085113;28;20045;-70
2023/05/28 08:12:49;;;;;;;20.15;11.20;;;563.40;2432.00;;;;;;5106425;28;20099;-71
2023/05/28 08:15:15;;;;;;;22.42;10.68;;;563.40;2432.00;;;;;;5101408;28;20111;-70
2023/05/28 08:17:41;;;;;;;15.93;9.85;;;563.40;2432.00;;;;;;5101199;28;20089;-71
2023/05/28 08:20:09;;;;;;;16.17;9.55;;;563.40;2432.00;;;;;;5101281;28;20394;-71
2023/05/28 08:22:35;;;;;;;17.35;9.45;;;563.60;2432.00;;;;;;5101777;28;20496;-74
2023/05/28 08:25:01;;;;;;;14.52;9.25;;;563.60;2432.00;;;;;;5102593;28;20097;-71
2023/05/28 08:27:27;;;;;;;15.73;9.48;;;563.60;2432.00;;;;;;5102631;28;20061;-70
2023/05/28 08:29:53;;;;;;;14.57;9.35;;;563.60;2432.00;;;;;;5082912;28;20027;-74
2023/05/28 08:32:18;;;;;;;18.30;11.02;;;563.60;2432.00;;;;;;5101189;28;20473;-72
2023/05/28 08:34:44;;;;;;;19.20;9.48;;;563.60;2432.00;;;;;;5106760;28;20051;-71
2023/05/28 08:37:10;;;;;;;20.67;11.00;;;563.70;2432.00;;;;;;5108532;28;20020;-71
2023/05/28 08:39:36;;;;;;;20.42;9.50;;;563.90;2432.00;;;;;;5102147;28;20032;-72
2023/05/28 08:42:03;;;;;;;14.10;9.55;;;563.90;2432.00;;;;;;5103076;28;20047;-70
2023/05/28 08:44:29;;;;;;;18.27;9.90;;;564.00;2432.00;;;;;;5105742;28;20024;-72
2023/05/28 08:46:55;;;;;;;18.10;10.02;;;563.90;2432.00;;;;;;5102370;28;20500;-71
2023/05/28 08:49:30;;;;;;;18.45;9.60;;;564.00;2432.00;;;;;;5103050;28;20030;-71
2023/05/28 08:52:02;;;;;;;21.50;9.70;;;564.00;2432.00;;;;;;5102402;28;20077;-71
2023/05/28 08:54:29;;;;;;;18.38;10.30;;;564.00;2432.00;;;;;;5111967;28;20104;-71
2023/05/28 08:56:55;;;;;;;20.48;9.85;;;564.10;2432.00;;;;;;5097133;28;20031;-71
2023/05/28 08:59:21;;;;;;;16.60;9.52;;;588.80;2432.00;;;;;;5099286;28;20138;-71
2023/05/28 09:01:47;;;;;;;14.20;9.13;;;588.80;2432.00;;;;;;5101817;28;20038;-70
2023/05/28 09:04:13;;;;;;;18.42;10.18;;;588.80;2432.00;;;;;;5104252;28;20031;-71
2023/05/28 09:06:38;;;;;;;15.27;9.93;;;588.90;2432.00;;;;;;5099508;28;20039;-72
2023/05/28 09:09:09;;;;;;;22.13;10.88;;;588.90;2432.00;;;;;;5097402;28;20053;-71
2023/05/28 09:11:35;;;;;;;19.17;9.68;;;589.00;2432.00;;;;;;5098088;28;20024;-70
2023/05/28 09:14:10;;;;;;;19.58;9.60;;;589.00;2432.00;;;;;;5096975;28;20046;-70
2023/05/28 09:16:39;;;;;;;18.90;9.93;;;589.00;2432.00;;;;;;5098928;28;20024;-70
2023/05/28 09:19:05;;;;;;;21.98;9.98;;;588.90;2432.00;;;;;;5106237;28;20020;-70
2023/05/28 09:21:32;;;;;;;22.98;10.10;;;589.00;2432.00;;;;;;5098834;28;20027;-71
2023/05/28 09:24:03;;;;;;;17.98;9.82;;;589.10;2432.00;;;;;;5097126;28;20158;-70
2023/05/28 09:26:33;;;;;;;17.33;9.82;;;589.20;2432.00;;;;;;5096125;28;20081;-70
2023/05/28 09:28:59;;;;;;;18.02;10.88;;;589.30;2432.00;;;;;;5098554;28;20028;-70
2023/05/28 09:31:29;;;;;;;18.95;10.25;;;589.30;2432.00;;;;;;5098693;28;20016;-70
2023/05/28 09:33:55;;;;;;;16.48;9.73;;;589.40;2432.00;;;;;;5094996;28;20498;-71
2023/05/28 09:36:20;;;;;;;15.77;9.85;;;589.40;2432.00;;;;;;5103981;28;20034;-71
2023/05/28 09:38:46;;;;;;;22.40;10.65;;;589.40;2432.00;;;;;;5100135;28;20055;-71
2023/05/28 09:41:20;;;;;;;23.55;11.82;;;589.50;2432.00;;;;;;5099367;28;20017;-72
2023/05/28 09:43:54;;;;;;;18.42;10.95;;;589.60;2432.00;;;;;;5100124;28;20428;-70
2023/05/28 09:46:20;;;;;;;16.00;10.60;;;614.40;2432.00;;;;;;5097788;28;20028;-70
2023/05/28 09:48:46;;;;;;;21.02;9.95;;;614.40;2432.00;;;;;;5099233;28;20500;-70
2023/05/28 09:51:14;;;;;;;21.40;11.30;;;589.70;2432.00;;;;;;5099097;28;20051;-70
2023/05/28 09:53:44;;;;;;;15.48;10.07;;;614.40;2432.00;;;;;;5107048;28;20043;-70
2023/05/28 09:56:12;;;;;;;16.25;10.63;;;614.40;2432.00;;;;;;5105480;28;20041;-70
2023/05/28 09:58:39;;;;;;;16.85;10.50;;;614.40;2432.00;;;;;;5094427;28;20016;-71
2023/05/28 10:01:09;;;;;;;19.42;12.30;;;614.40;2432.00;;;;;;5104589;28;20048;-71
2023/05/28 10:03:40;;;;;;;16.05;9.82;;;614.80;2432.00;;;;;;5098834;28;20046;-70
2023/05/28 10:06:18;;;;;;;17.55;11.45;;;614.70;2432.00;;;;;;5102052;28;20070;-70
2023/05/28 10:08:53;;;;;;;16.70;10.80;;;614.90;2432.00;;;;;;5101116;28;20080;-70
2023/05/28 10:11:22;;;;;;;19.35;12.98;;;614.90;2432.00;;;;;;5100470;28;20537;-70
2023/05/28 10:13:49;;;;;;;22.38;11.32;;;;;;;;;;5102771;28;20043;-71
2023/05/28 10:16:15;;;;;;;19.70;12.13;;;;;;;;;;5101241;28;20481;-71
2023/05/28 10:18:44;;;;;;;20.05;10.85;;;;;;;;;;5101014;28;20047;-71
2023/05/28 10:21:12;;;;;;;19.88;11.95;;;615.20;2432.00;;;;;;5098164;28;20050;-70
2023/05/28 10:23:40;;;;;;;18.23;10.57;;;640.10;2432.00;;;;;;5098463;28;20036;-71
2023/05/28 10:26:07;;;;;;;14.40;9.50;;;640.50;2432.00;;;;;;5099093;28;20107;-71
2023/05/28 10:28:33;;;;;;;17.80;10.65;;;640.60;2432.00;;;;;;5104715;28;20032;-70
2023/05/28 10:31:04;;;;;;;17.33;10.32;;;640.70;2432.00;;;;;;5099028;28;20081;-70
2023/05/28 10:33:30;;;;;;;14.55;10.20;;;640.70;2432.00;;;;;;5105435;28;20063;-72
2023/05/28 10:35:58;;;;;;;15.15;10.07;;;640.90;2432.00;;;;;;5102053;28;20043;-70
2023/05/28 10:38:25;;;;;;;16.92;10.10;;;665.70;2432.00;;;;;;5099157;28;20370;-71
2023/05/28 10:40:51;;;;;;;15.43;10.85;;;666.20;2432.00;;;;;;5096012;28;20481;-71
2023/05/28 10:43:38;;;;;;;20.48;10.38;;;666.10;2432.00;;;;;;5101659;28;20504;-71
2023/05/28 10:46:09;;;;;;;20.55;10.95;;;666.20;2432.00;;;;;;5089696;28;20035;-71
2023/05/28 10:49:05;;;;;;;18.00;8.82;;;666.30;2432.00;;;;;;5097862;28;20027;-71
2023/05/28 10:51:55;;;;;;;15.57;9.25;;;691.20;2432.00;;;;;;5091639;28;20434;-71
2023/05/28 10:54:24;;;;;;;11.75;8.07;;;666.50;2432.00;;;;;;5097162;28;20028;-71
2023/05/28 10:57:17;;;;;;;18.63;9.45;;;665.90;2432.00;;;;;;5099463;28;20034;-71
2023/05/28 10:59:47;;;;;;;13.35;7.97;;;666.00;2432.00;;;;;;5094680;28;20086;-71
2023/05/28 11:02:22;;;;;;;15.38;8.23;;;665.60;2432.00;;;;;;5095226;28;20020;-70
2023/05/28 11:04:56;;;;;;;14.55;7.65;;;640.70;2432.00;;;;;;5098359;28;20115;-71
2023/05/28 11:07:35;;;;;;;10.35;7.20;;;640.50;2432.00;;;;;;5097764;28;20418;-75
2023/05/28 11:10:05;;;;;;;13.43;8.32;;;640.40;2432.00;;;;;;5091430;28;20024;-72
2023/05/28 11:12:34;;;;;;;10.52;8.00;;;640.40;2432.00;;;;;;5099976;28;20032;-73
2023/05/28 11:14:59;;;;;;;12.77;7.75;;;640.20;2432.00;;;;;;5102046;28;20043;-72
2023/05/28 11:17:25;;;;;;;10.55;7.97;;;640.40;2432.00;;;;;;5098273;28;20398;-72
2023/05/28 11:19:53;;;;;;;13.77;7.00;;;640.50;2432.00;;;;;;5104701;28;20046;-72
2023/05/28 11:22:20;;;;;;;11.10;7.47;;;640.70;2432.00;;;;;;5093653;28;20016;-72
2023/05/28 11:25:04;;;;;;;11.98;7.45;;;640.40;2432.00;;;;;;5102035;28;20379;-72
2023/05/28 11:27:31;;;;;;;11.38;6.45;;;640.80;2432.00;;;;;;5101228;28;20016;-72
2023/05/28 11:29:58;;;;;;;12.98;7.47;;;666.00;2252.80;;;;;;5098020;28;20031;-72
2023/05/28 11:32:25;;;;;;;9.98;7.70;;;666.00;2099.20;;;;;;5083695;28;20084;-73
2023/05/28 11:34:52;;;;;;;9.70;7.65;;;666.00;2304.00;;;;;;5093893;28;20182;-73
2023/05/28 11:37:29;;;;;;;10.88;7.95;;;665.80;2278.40;;;;;;5107735;28;20498;-73
2023/05/28 11:39:56;;;;;;;12.20;6.43;;;666.30;2329.60;;;;;;5102930;28;20027;-73
2023/05/28 11:42:24;;;;;;;9.88;6.70;;;666.50;2099.20;;;;;;5102270;28;20028;-71
2023/05/28 11:44:50;;;;;;;12.23;6.68;;;691.60;2150.40;;;;;;5100578;28;20028;-72
2023/05/28 11:47:17;;;;;;;10.68;6.85;;;691.80;2227.20;;;;;;5105286;28;20118;-72
2023/05/28 11:49:43;;;;;;;10.23;6.45;;;692.10;2124.80;;;;;;5110793;28;20098;-71
2023/05/28 11:52:15;;;;;;;10.90;6.60;;;691.90;2073.60;;;;;;5101970;28;20036;-71
2023/05/28 11:54:41;;;;;;;9.48;6.47;;;692.00;2150.40;;;;;;5093550;28;20059;-72
2023/05/28 11:57:08;;;;;;;13.93;7.50;;;716.90;2048.00;;;;;;5099166;28;20028;-72
2023/05/28 11:59:34;;;;;;;12.43;7.13;;;716.90;1843.20;;;;;;5104547;28;20102;-71
2023/05/28 12:02:14;;;;;;;13.07;6.47;;;691.60;2022.40;;;;;;5103660;28;20065;-72
2023/05/28 12:04:52;;;;;;;9.65;6.57;;;691.20;2329.60;;;;;;5102334;28;20477;-72
2023/05/28 12:07:17;;;;;;;10.35;7.50;;;691.60;2278.40;;;;;;5105754;28;20026;-71
2023/05/28 12:09:43;;;;;;;13.35;6.28;;;691.90;2201.60;;;;;;5101986;28;20036;-71